Time;durP1;ratioP1;P1;durP2;ratioP2;P2;SDS_P1;SDS_P2;PMS_P1;PMS_P2;Temp;Humidity;BMP_temperature;BMP_pressure;BME280_temperature;BME280_humidity;BME280_pressure;Samples;Min_cycle;Max_cycle;Signal;HPM_P1;HPM_P2
2024/01/27 00:00:03;;;;;;;39.93;35.70;;;;;;;5.27;100.00;102629.34;4930766;28;20465;-43
2024/01/27 00:02:31;;;;;;;45.90;36.40;;;;;;;5.30;100.00;102627.31;4930710;29;20476;-43
2024/01/27 00:04:59;;;;;;;39.73;34.87;;;;;;;5.36;100.00;102631.28;4930707;29;20488;-48
2024/01/27 00:07:28;;;;;;;38.60;35.10;;;;;;;5.37;100.00;102630.34;4930956;29;20764;-44
2024/01/27 00:09:55;;;;;;;37.23;33.80;;;;;;;5.40;100.00;102630.13;4930824;28;20469;-44
2024/01/27 00:12:23;;;;;;;42.23;36.83;;;;;;;5.41;100.00;102624.69;4930221;29;20517;-43
2024/01/27 00:14:53;;;;;;;41.70;37.80;;;;;;;5.42;100.00;102633.47;4931161;29;20941;-44
2024/01/27 00:17:23;;;;;;;38.57;34.53;;;;;;;5.42;100.00;102628.19;4931019;29;20869;-45
2024/01/27 00:19:51;;;;;;;39.80;35.20;;;;;;;5.42;100.00;102636.97;4930914;28;20551;-44
2024/01/27 00:22:20;;;;;;;39.73;35.87;;;;;;;5.39;100.00;102625.78;4930711;29;20437;-44
2024/01/27 00:24:48;;;;;;;40.27;35.90;;;;;;;5.39;100.00;102631.06;4931057;29;20828;-41
2024/01/27 00:27:16;;;;;;;41.00;36.50;;;;;;;5.40;100.00;102636.25;4931148;29;20535;-42
2024/01/27 00:29:44;;;;;;;40.20;35.90;;;;;;;5.41;100.00;102637.91;4930414;28;20472;-45
2024/01/27 00:32:13;;;;;;;41.07;36.63;;;;;;;5.42;100.00;102647.56;4930407;29;20488;-42
2024/01/27 00:34:41;;;;;;;39.37;35.10;;;;;;;5.42;100.00;102654.66;4930667;29;20555;-46
2024/01/27 00:37:09;;;;;;;43.77;35.73;;;;;;;5.40;100.00;102654.78;4933658;29;20487;-42
2024/01/27 00:39:37;;;;;;;43.97;35.80;;;;;;;5.45;100.00;102655.25;4933841;28;20490;-43
2024/01/27 00:42:04;;;;;;;40.60;36.23;;;;;;;5.47;100.00;102658.63;4934335;29;20429;-45
2024/01/27 00:44:32;;;;;;;43.00;36.77;;;;;;;5.44;100.00;102648.28;4933985;29;20467;-42
2024/01/27 00:47:00;;;;;;;41.73;37.47;;;;;;;5.49;100.00;102664.66;4934508;29;20433;-42
2024/01/27 00:49:29;;;;;;;40.93;36.70;;;;;;;5.51;100.00;102657.44;4934026;28;20472;-45
2024/01/27 00:51:57;;;;;;;37.77;34.27;;;;;;;5.50;100.00;102668.13;4934192;29;20563;-43
2024/01/27 00:54:25;;;;;;;38.97;35.30;;;;;;;5.51;100.00;102660.09;4933238;29;20547;-45
2024/01/27 00:56:54;;;;;;;44.10;36.40;;;;;;;5.48;100.00;102673.56;4934390;29;21200;-42
2024/01/27 00:59:21;;;;;;;45.47;38.67;;;;;;;5.52;100.00;102679.47;4933303;28;20560;-41
2024/01/27 01:01:49;;;;;;;39.73;36.13;;;;;;;5.52;100.00;102680.31;4934400;29;20470;-42
2024/01/27 01:04:17;;;;;;;44.87;37.10;;;;;;;5.54;100.00;102682.81;4934105;29;20543;-44
2024/01/27 01:06:46;;;;;;;48.47;37.80;;;;;;;5.55;100.00;102682.69;4933763;29;20445;-43
2024/01/27 01:09:14;;;;;;;50.10;38.70;;;;;;;5.54;100.00;102675.72;4933701;28;20469;-46
2024/01/27 01:11:42;;;;;;;50.30;38.30;;;;;;;5.57;100.00;102686.09;4933553;29;20563;-43
2024/01/27 01:14:10;;;;;;;46.17;38.27;;;;;;;5.52;100.00;102684.75;4933910;29;20560;-43
2024/01/27 01:16:38;;;;;;;39.43;36.07;;;;;;;5.53;100.00;102681.97;4934011;29;20449;-46
2024/01/27 01:19:05;;;;;;;41.40;37.23;;;;;;;5.53;100.00;102681.97;4933585;28;20472;-42
2024/01/27 01:21:33;;;;;;;46.03;38.73;;;;;;;5.55;100.00;102687.16;4933456;29;20924;-43
2024/01/27 01:24:03;;;;;;;43.80;39.17;;;;;;;5.57;100.00;102685.22;4933532;29;20464;-42
2024/01/27 01:26:30;;;;;;;48.47;38.80;;;;;;;5.57;100.00;102694.03;4933542;29;20449;-42
2024/01/27 01:28:58;;;;;;;41.23;37.30;;;;;;;5.57;100.00;102690.53;4933260;28;20460;-43
2024/01/27 01:31:26;;;;;;;43.87;37.97;;;;;;;5.55;100.00;102695.09;4934059;29;20444;-44
2024/01/27 01:33:54;;;;;;;41.23;37.40;;;;;;;5.53;100.00;102702.28;4933402;29;20473;-43
2024/01/27 01:36:22;;;;;;;41.40;37.10;;;;;;;5.53;100.00;102702.28;4933309;29;20499;-43
2024/01/27 01:38:50;;;;;;;53.20;37.83;;;;;;;5.53;100.00;102707.59;4933327;28;20818;-44
2024/01/27 01:41:19;;;;;;;42.00;37.33;;;;;;;5.54;100.00;102706.63;4933381;29;20440;-44
2024/01/27 01:43:47;;;;;;;40.33;36.20;;;;;;;5.54;100.00;102704.00;4932908;29;20478;-43
2024/01/27 01:46:15;;;;;;;41.30;36.80;;;;;;;5.57;100.00;102709.06;4933116;29;20477;-44
2024/01/27 01:48:43;;;;;;;41.20;36.77;;;;;;;5.61;100.00;102723.75;4931600;28;20495;-46
2024/01/27 01:51:11;;;;;;;51.80;39.93;;;;;;;5.61;100.00;102726.41;4933100;29;20928;-48
2024/01/27 01:53:39;;;;;;;43.90;37.07;;;;;;;5.59;100.00;102715.06;4924977;29;20468;-44
2024/01/27 01:56:08;;;;;;;49.57;40.83;;;;;;;5.59;100.00;102712.41;4933191;29;20464;-43
2024/01/27 01:58:37;;;;;;;46.40;37.93;;;;;;;5.58;100.00;102703.63;4932111;28;20504;-44
2024/01/27 02:01:05;;;;;;;44.83;39.20;;;;;;;5.57;100.00;102707.25;4932694;29;20436;-44
2024/01/27 02:03:33;;;;;;;48.40;39.50;;;;;;;5.55;100.00;102717.09;4932492;29;20451;-45
2024/01/27 02:06:01;;;;;;;46.97;39.53;;;;;;;5.56;100.00;102712.66;4932638;29;20527;-46
2024/01/27 02:08:29;;;;;;;45.23;39.53;;;;;;;5.57;100.00;102714.34;4932472;29;20543;-45
2024/01/27 02:10:58;;;;;;;40.93;36.53;;;;;;;5.56;100.00;102720.59;4932064;28;20476;-44
2024/01/27 02:13:27;;;;;;;46.17;38.97;;;;;;;5.53;100.00;102720.81;4932567;29;20472;-40
2024/01/27 02:15:56;;;;;;;40.97;36.57;;;;;;;5.52;100.00;102717.34;4932394;29;20492;-42
2024/01/27 02:18:24;;;;;;;44.70;38.87;;;;;;;5.54;100.00;102717.22;4932494;29;20443;-41
2024/01/27 02:20:52;;;;;;;50.90;39.33;;;;;;;5.53;100.00;102715.53;4932382;28;20464;-41
2024/01/27 02:23:19;;;;;;;55.00;37.20;;;;;;;5.54;100.00;102723.38;4932582;29;20437;-41
2024/01/27 02:25:50;;;;;;;53.27;38.70;;;;;;;5.54;100.00;102719.88;4932605;29;20449;-44
2024/01/27 02:28:18;;;;;;;59.90;40.67;;;;;;;5.56;100.00;102715.28;4932457;29;20524;-41
2024/01/27 02:30:45;;;;;;;41.63;37.63;;;;;;;5.56;100.00;102716.16;4931700;28;21039;-45
2024/01/27 02:33:13;;;;;;;47.53;37.37;;;;;;;5.56;100.00;102717.94;4932400;29;20810;-44
2024/01/27 02:35:43;;;;;;;49.70;38.97;;;;;;;5.56;100.00;102721.44;4932024;29;20460;-43
2024/01/27 02:38:11;;;;;;;44.73;39.80;;;;;;;5.53;100.00;102728.75;4932677;29;21074;-42
2024/01/27 02:40:39;;;;;;;45.13;40.23;;;;;;;5.53;100.00;102731.41;4932071;28;20568;-41
2024/01/27 02:43:08;;;;;;;73.13;38.80;;;;;;;5.54;100.00;102726.00;4931888;29;20463;-42
2024/01/27 02:45:35;;;;;;;54.23;38.70;;;;;;;5.53;100.00;102726.97;4931902;29;20491;-45
2024/01/27 02:48:04;;;;;;;49.60;37.73;;;;;;;5.54;100.00;102725.16;4932482;29;20441;-43
2024/01/27 02:50:32;;;;;;;54.40;39.20;;;;;;;5.52;100.00;102733.22;4931723;28;21175;-43
2024/01/27 02:52:59;;;;;;;54.80;39.40;;;;;;;5.55;100.00;102732.97;4931871;29;20508;-43
2024/01/27 02:55:27;;;;;;;47.03;40.07;;;;;;;5.55;100.00;102727.69;4931972;29;20461;-43
2024/01/27 02:57:55;;;;;;;48.23;40.27;;;;;;;5.54;100.00;102730.47;4932160;29;20483;-44
2024/01/27 03:00:24;;;;;;;47.10;40.63;;;;;;;5.53;100.00;102734.06;4931230;28;20467;-44
2024/01/27 03:02:52;;;;;;;55.17;40.00;;;;;;;5.50;100.00;102736.94;4931627;29;20468;-44
2024/01/27 03:05:20;;;;;;;50.23;40.07;;;;;;;5.49;100.00;102744.06;4932129;29;20492;-44
2024/01/27 03:07:47;;;;;;;46.33;38.00;;;;;;;5.47;100.00;102737.16;4931920;29;20448;-43
2024/01/27 03:10:15;;;;;;;50.43;41.00;;;;;;;5.44;100.00;102740.03;4931455;28;20460;-41
2024/01/27 03:12:43;;;;;;;45.23;39.43;;;;;;;5.39;100.00;102739.53;4931434;29;20484;-42
2024/01/27 03:15:11;;;;;;;51.93;41.70;;;;;;;5.35;100.00;102744.22;4932028;29;20464;-43
2024/01/27 03:17:40;;;;;;;48.73;40.43;;;;;;;5.37;100.00;102744.97;4931559;29;20449;-42
2024/01/27 03:20:09;;;;;;;55.00;40.93;;;;;;;5.37;100.00;102741.47;4931375;28;20570;-43
2024/01/27 03:22:37;;;;;;;60.60;41.37;;;;;;;5.35;100.00;102748.66;4931733;29;20441;-43
2024/01/27 03:25:06;;;;;;;46.83;41.60;;;;;;;5.31;100.00;102745.41;4931733;29;20464;-42
2024/01/27 03:27:34;;;;;;;48.03;43.13;;;;;;;5.27;100.00;102749.22;4931779;29;21007;-45
2024/01/27 03:30:03;;;;;;;53.53;41.37;;;;;;;5.21;100.00;102754.97;4931086;28;20465;-44
2024/01/27 03:32:32;;;;;;;56.27;43.03;;;;;;;5.14;100.00;102763.50;4931049;29;20496;-43
2024/01/27 03:35:03;;;;;;;51.63;42.00;;;;;;;5.13;100.00;102759.16;4931409;29;20461;-43
2024/01/27 03:37:31;;;;;;;51.53;45.50;;;;;;;5.07;100.00;102755.16;4931093;29;20499;-43
2024/01/27 03:39:59;;;;;;;57.50;45.00;;;;;;;5.02;100.00;102768.69;4931496;28;20457;-44
2024/01/27 03:42:27;;;;;;;46.40;41.20;;;;;;;5.01;100.00;102761.75;4931134;29;20468;-46
2024/01/27 03:44:54;;;;;;;55.23;43.23;;;;;;;5.00;100.00;102775.91;4931082;29;20461;-44
2024/01/27 03:47:23;;;;;;;55.07;43.60;;;;;;;4.96;100.00;102774.44;4931775;29;21053;-43
2024/01/27 03:49:50;;;;;;;68.43;44.27;;;;;;;4.94;100.00;102776.34;4931020;28;20460;-42
2024/01/27 03:52:20;;;;;;;48.13;43.30;;;;;;;4.92;100.00;102785.34;4930890;29;20801;-42
2024/01/27 03:54:47;;;;;;;49.83;44.03;;;;;;;4.92;100.00;102788.00;4931487;29;20508;-45
2024/01/27 03:57:16;;;;;;;49.83;41.77;;;;;;;4.90;100.00;102790.72;4931711;29;20436;-44
2024/01/27 03:59:44;;;;;;;43.63;38.93;;;;;;;4.91;100.00;102792.44;4923240;28;20468;-44
2024/01/27 04:02:11;;;;;;;52.93;41.97;;;;;;;4.89;100.00;102799.63;4931141;29;20472;-44
2024/01/27 04:04:39;;;;;;;52.10;41.03;;;;;;;4.92;100.00;102802.06;4930941;29;20564;-45
2024/01/27 04:07:07;;;;;;;44.87;40.07;;;;;;;4.96;100.00;102808.78;4931446;29;20437;-43
2024/01/27 04:09:36;;;;;;;49.67;39.57;;;;;;;4.99;100.00;102808.56;4931012;28;20479;-43
2024/01/27 04:12:05;;;;;;;52.47;40.77;;;;;;;5.01;100.00;102806.69;4934483;29;20781;-43
2024/01/27 04:14:33;;;;;;;56.70;41.47;;;;;;;5.05;100.00;102811.75;4934077;29;20519;-41
2024/01/27 04:17:05;;;;;;;51.60;40.20;;;;;;;5.09;100.00;102813.22;4934648;29;20444;-43
2024/01/27 04:19:32;;;;;;;62.13;40.10;;;;;;;5.09;100.00;102802.63;4934241;28;20894;-41
2024/01/27 04:22:01;;;;;;;55.73;44.00;;;;;;;5.10;100.00;102806.97;4934791;29;20433;-44
2024/01/27 04:24:28;;;;;;;47.83;39.27;;;;;;;5.06;100.00;102797.56;4934388;29;20467;-42
2024/01/27 04:27:02;;;;;;;46.00;41.40;;;;;;;5.08;100.00;102811.53;4934610;29;20971;-43
2024/01/27 04:29:30;;;;;;;44.43;39.97;;;;;;;5.03;100.00;102810.06;4934442;28;20475;-45
2024/01/27 04:31:57;;;;;;;52.03;40.77;;;;;;;5.01;100.00;102813.78;4926222;29;20874;-45
2024/01/27 04:34:25;;;;;;;45.43;40.10;;;;;;;5.00;100.00;102812.06;4934411;29;20476;-43
2024/01/27 04:36:53;;;;;;;55.00;41.63;;;;;;;4.99;100.00;102808.56;4934206;29;20800;-46
2024/01/27 04:39:21;;;;;;;45.83;40.77;;;;;;;4.99;100.00;102824.44;4933916;28;20499;-45
2024/01/27 04:41:49;;;;;;;47.83;42.73;;;;;;;4.97;100.00;102822.88;4934202;29;20445;-44
2024/01/27 04:44:20;;;;;;;54.33;40.10;;;;;;;4.91;100.00;102821.50;4934101;29;21122;-44
2024/01/27 04:46:48;;;;;;;52.33;40.17;;;;;;;4.87;100.00;102825.31;4934354;29;20981;-46
2024/01/27 04:49:16;;;;;;;45.57;40.70;;;;;;;4.80;100.00;102821.44;4934327;28;20510;-44
2024/01/27 04:51:45;;;;;;;56.13;44.00;;;;;;;4.75;100.00;102823.53;4934138;29;20455;-42
2024/01/27 04:54:13;;;;;;;57.60;45.83;;;;;;;4.73;100.00;102824.59;4933145;29;20853;-48
2024/01/27 04:56:40;;;;;;;47.07;42.03;;;;;;;4.67;100.00;102836.47;4933695;29;20452;-45
2024/01/27 04:59:08;;;;;;;59.20;43.83;;;;;;;4.65;100.00;102835.72;4933767;28;20548;-44
2024/01/27 05:01:37;;;;;;;68.60;42.10;;;;;;;4.61;100.00;102836.88;4934020;29;20444;-46
2024/01/27 05:04:05;;;;;;;49.37;42.60;;;;;;;4.57;100.00;102842.50;4934130;29;20479;-43
2024/01/27 05:06:33;;;;;;;48.37;42.10;;;;;;;4.52;100.00;102839.31;4934304;29;20532;-43
2024/01/27 05:09:01;;;;;;;48.13;42.63;;;;;;;4.50;100.00;102838.59;4933799;28;20471;-45
2024/01/27 05:11:31;;;;;;;51.03;44.53;;;;;;;4.43;100.00;102839.00;4933968;29;20452;-43
2024/01/27 05:13:59;;;;;;;47.87;42.27;;;;;;;4.41;100.00;102840.06;4933664;29;20477;-42
2024/01/27 05:16:27;;;;;;;59.27;43.50;;;;;;;4.37;100.00;102836.78;4933964;29;20841;-42
2024/01/27 05:18:56;;;;;;;48.57;43.23;;;;;;;4.34;100.00;102844.94;4932898;28;20521;-42
2024/01/27 05:21:24;;;;;;;54.57;43.90;;;;;;;4.33;100.00;102842.41;4933062;29;20445;-43
2024/01/27 05:23:53;;;;;;;52.90;42.60;;;;;;;4.29;100.00;102838.28;4932754;29;20441;-41
2024/01/27 05:26:21;;;;;;;48.30;43.03;;;;;;;4.26;100.00;102831.41;4933180;29;20955;-44
2024/01/27 05:28:48;;;;;;;48.80;43.90;;;;;;;4.25;100.00;102840.28;4932907;28;20531;-41
2024/01/27 05:31:16;;;;;;;48.37;43.70;;;;;;;4.24;100.00;102846.50;4933457;29;20531;-42
2024/01/27 05:33:44;;;;;;;52.30;44.30;;;;;;;4.22;100.00;102842.28;4932842;29;20447;-42
2024/01/27 05:36:13;;;;;;;49.80;42.93;;;;;;;4.17;100.00;102855.78;4933069;29;20445;-42
2024/01/27 05:38:41;;;;;;;48.27;43.13;;;;;;;4.17;100.00;102839.09;4932006;28;20440;-46
2024/01/27 05:41:09;;;;;;;57.83;45.97;;;;;;;4.16;100.00;102850.59;4933242;29;20552;-42
2024/01/27 05:43:37;;;;;;;48.20;43.20;;;;;;;4.12;100.00;102857.88;4932473;29;20487;-42
2024/01/27 05:46:05;;;;;;;49.50;44.90;;;;;;;4.12;100.00;102855.25;4932816;29;20543;-44
2024/01/27 05:48:33;;;;;;;67.00;44.50;;;;;;;4.13;100.00;102861.38;4932822;29;20451;-42
2024/01/27 05:51:01;;;;;;;49.63;43.97;;;;;;;4.10;100.00;102869.50;4932265;29;20804;-42
2024/01/27 05:53:31;;;;;;;54.70;43.63;;;;;;;4.11;100.00;102868.56;4932794;29;20459;-42
2024/01/27 05:55:58;;;;;;;49.20;44.07;;;;;;;4.08;100.00;102888.09;4931963;29;20476;-44
2024/01/27 05:58:26;;;;;;;49.13;44.60;;;;;;;4.08;100.00;102879.34;4932693;29;20441;-43
2024/01/27 06:00:54;;;;;;;55.13;45.87;;;;;;;4.09;100.00;102884.50;4932003;28;21194;-42
2024/01/27 06:03:22;;;;;;;57.17;47.00;;;;;;;4.10;100.00;102878.28;4932207;29;21161;-43
2024/01/27 06:05:50;;;;;;;53.87;47.00;;;;;;;4.09;100.00;102875.75;4932676;29;20457;-43
2024/01/27 06:08:19;;;;;;;86.20;46.43;;;;;;;4.10;100.00;102882.69;4932701;29;20445;-44
2024/01/27 06:10:49;;;;;;;58.70;47.00;;;;;;;4.08;100.00;102887.25;4932563;28;20469;-42
2024/01/27 06:13:16;;;;;;;52.13;46.83;;;;;;;4.08;100.00;102888.09;4926965;29;20581;-43
2024/01/27 06:15:44;;;;;;;51.97;46.67;;;;;;;4.07;100.00;102880.28;4929778;29;20830;-41
2024/01/27 06:18:12;;;;;;;50.53;45.50;;;;;;;4.06;100.00;102897.91;4932262;29;20441;-42
2024/01/27 06:20:40;;;;;;;57.47;44.67;;;;;;;4.06;100.00;102910.28;4931153;28;20482;-42
2024/01/27 06:23:08;;;;;;;50.73;45.33;;;;;;;4.04;100.00;102907.72;4932187;29;21215;-41
2024/01/27 06:25:36;;;;;;;54.17;44.80;;;;;;;4.04;100.00;102912.16;4932155;29;20457;-42
2024/01/27 06:28:06;;;;;;;56.13;46.50;;;;;;;4.02;100.00;102916.69;4932038;29;20955;-42
2024/01/27 06:30:34;;;;;;;51.90;46.87;;;;;;;4.02;100.00;102916.69;4931591;28;20600;-42
2024/01/27 06:33:02;;;;;;;61.43;45.53;;;;;;;4.01;100.00;102915.00;4931723;29;20444;-42
2024/01/27 06:35:30;;;;;;;51.53;46.13;;;;;;;3.99;100.00;102915.13;4932103;29;20848;-43
2024/01/27 06:37:58;;;;;;;52.00;46.87;;;;;;;4.00;100.00;102919.47;4931428;29;20441;-42
2024/01/27 06:40:25;;;;;;;55.97;44.60;;;;;;;3.98;100.00;102916.03;4931339;28;20469;-42
2024/01/27 06:42:53;;;;;;;52.03;46.17;;;;;;;3.97;100.00;102927.56;4931576;29;20532;-42
2024/01/27 06:45:22;;;;;;;49.63;44.60;;;;;;;3.96;100.00;102931.16;4931788;29;20996;-42
2024/01/27 06:47:50;;;;;;;48.63;43.83;;;;;;;3.91;100.00;102934.06;4931638;29;20436;-45
2024/01/27 06:50:18;;;;;;;54.97;47.67;;;;;;;3.91;100.00;102931.44;4931547;28;20529;-41
2024/01/27 06:52:46;;;;;;;59.60;45.53;;;;;;;3.88;100.00;102928.19;4931714;29;20468;-46
2024/01/27 06:55:14;;;;;;;52.30;46.60;;;;;;;3.87;100.00;102931.75;4931135;29;20512;-42
2024/01/27 06:57:42;;;;;;;52.50;47.07;;;;;;;3.87;100.00;102937.88;4931859;29;20451;-41
2024/01/27 07:00:14;;;;;;;63.97;48.90;;;;;;;3.83;100.00;102944.28;4931316;28;20987;-41
2024/01/27 07:02:44;;;;;;;53.37;47.77;;;;;;;3.82;100.00;102939.94;4931169;29;20445;-41
2024/01/27 07:05:14;;;;;;;51.77;46.57;;;;;;;3.81;100.00;102942.72;4931638;29;20456;-42
2024/01/27 07:07:42;;;;;;;53.90;48.70;;;;;;;3.77;100.00;102946.47;4931232;29;20453;-41
2024/01/27 07:10:10;;;;;;;53.23;48.13;;;;;;;3.74;100.00;102950.16;4930752;28;20568;-43
2024/01/27 07:12:38;;;;;;;55.97;50.00;;;;;;;3.71;100.00;102953.00;4931403;29;20472;-42
2024/01/27 07:15:07;;;;;;;58.20;47.20;;;;;;;3.71;100.00;102957.44;4930669;29;20987;-44
2024/01/27 07:17:35;;;;;;;51.77;46.17;;;;;;;3.67;100.00;102964.72;4931520;29;20848;-45
2024/01/27 07:20:06;;;;;;;57.53;46.83;;;;;;;3.70;100.00;102958.41;4931036;28;20461;-42
2024/01/27 07:22:34;;;;;;;56.50;46.20;;;;;;;3.69;100.00;102965.47;4931141;29;20455;-42
2024/01/27 07:25:02;;;;;;;53.67;48.40;;;;;;;3.74;100.00;102963.38;4931457;29;20555;-44
2024/01/27 07:27:30;;;;;;;51.20;45.17;;;;;;;3.78;100.00;102967.50;4931138;29;20484;-43
2024/01/27 07:29:58;;;;;;;50.80;45.50;;;;;;;3.82;100.00;102976.91;4930642;28;20464;-44
2024/01/27 07:32:26;;;;;;;58.53;46.30;;;;;;;3.88;100.00;102975.69;4930995;29;20444;-41
2024/01/27 07:34:54;;;;;;;52.53;46.77;;;;;;;3.91;100.00;102976.31;4930643;29;20491;-44
2024/01/27 07:37:23;;;;;;;48.90;44.00;;;;;;;3.98;100.00;102986.47;4931628;29;20864;-42
2024/01/27 07:39:51;;;;;;;59.43;46.87;;;;;;;4.05;100.00;102979.88;4928202;28;20555;-41
2024/01/27 07:42:19;;;;;;;50.90;45.90;;;;;;;4.12;100.00;102975.88;4931603;29;20441;-45
2024/01/27 07:44:47;;;;;;;51.13;46.37;;;;;;;4.18;100.00;102988.69;4931715;29;20472;-40
2024/01/27 07:47:15;;;;;;;58.13;45.17;;;;;;;4.23;100.00;102987.44;4935261;29;20501;-41
2024/01/27 07:49:43;;;;;;;54.77;42.30;;;;;;;4.24;100.00;102990.94;4934127;28;20496;-41
2024/01/27 07:52:11;;;;;;;47.70;42.33;;;;;;;4.27;100.00;102982.81;4927568;29;20975;-41
2024/01/27 07:54:40;;;;;;;47.97;43.07;;;;;;;4.30;100.00;102995.81;4935390;29;20492;-43
2024/01/27 07:57:08;;;;;;;49.40;44.87;;;;;;;4.30;100.00;103006.38;4934983;29;20476;-41
2024/01/27 07:59:36;;;;;;;50.10;44.90;;;;;;;4.33;100.00;103003.53;4934514;28;20983;-43
2024/01/27 08:02:04;;;;;;;51.63;45.50;;;;;;;4.34;100.00;102992.84;4934346;29;20436;-41
2024/01/27 08:04:32;;;;;;;50.93;45.40;;;;;;;4.35;100.00;103009.53;4934785;29;20997;-41
2024/01/27 08:07:05;;;;;;;57.77;44.53;;;;;;;4.36;100.00;103016.53;4934835;29;20444;-41
2024/01/27 08:09:33;;;;;;;49.50;42.13;;;;;;;4.37;100.00;103026.97;4934500;28;20856;-41
2024/01/27 08:12:03;;;;;;;50.27;42.13;;;;;;;4.37;100.00;103031.41;4926823;29;20444;-42
2024/01/27 08:14:31;;;;;;;48.93;43.70;;;;;;;4.34;100.00;103016.63;4934495;29;21080;-44
2024/01/27 08:16:59;;;;;;;49.77;44.97;;;;;;;4.30;100.00;103024.88;4934121;29;20516;-44
2024/01/27 08:19:27;;;;;;;49.30;43.03;;;;;;;4.31;100.00;103030.03;4934443;28;20575;-42
2024/01/27 08:21:55;;;;;;;48.47;43.80;;;;;;;4.33;100.00;103024.66;4934261;29;20812;-43
2024/01/27 08:24:24;;;;;;;53.30;47.70;;;;;;;4.35;100.00;103028.03;4933853;29;20464;-45
2024/01/27 08:26:52;;;;;;;49.37;45.00;;;;;;;4.35;100.00;103020.13;4934380;29;20471;-42
2024/01/27 08:29:21;;;;;;;60.77;46.47;;;;;;;4.38;100.00;103004.91;4934666;28;20466;-42
2024/01/27 08:31:50;;;;;;;50.73;45.80;;;;;;;4.41;100.00;103012.63;4933998;29;20440;-45
2024/01/27 08:34:18;;;;;;;51.40;46.60;;;;;;;4.46;100.00;103012.31;4934333;29;20464;-41
2024/01/27 08:36:46;;;;;;;50.27;44.83;;;;;;;4.54;100.00;103007.34;4934072;29;20486;-45
2024/01/27 08:39:14;;;;;;;51.20;45.67;;;;;;;4.64;100.00;103002.31;4934071;28;20456;-41
2024/01/27 08:41:41;;;;;;;48.10;43.33;;;;;;;4.67;100.00;103016.16;4933830;29;20444;-43
2024/01/27 08:44:09;;;;;;;50.90;45.90;;;;;;;4.78;100.00;103026.03;4934089;29;21065;-44
2024/01/27 08:46:38;;;;;;;50.43;45.63;;;;;;;4.89;100.00;103021.72;4934154;29;20919;-41
2024/01/27 08:49:06;;;;;;;49.57;45.40;;;;;;;4.91;100.00;103026.88;4933601;28;20472;-45
2024/01/27 08:51:35;;;;;;;51.13;45.90;;;;;;;5.00;100.00;103036.84;4934057;29;20445;-41
2024/01/27 08:54:03;;;;;;;52.20;46.53;;;;;;;5.07;100.00;103024.91;4933511;29;20868;-41
2024/01/27 08:56:31;;;;;;;53.07;45.20;;;;;;;5.14;100.00;103031.44;4931443;29;21001;-44
2024/01/27 08:58:58;;;;;;;50.13;45.67;;;;;;;5.29;100.00;103043.59;4933429;28;20491;-44
2024/01/27 09:01:27;;;;;;;47.90;42.93;;;;;;;5.44;100.00;103047.81;4933959;29;20441;-42
2024/01/27 09:03:56;;;;;;;49.37;44.30;;;;;;;5.56;100.00;103041.69;4933473;29;20448;-41
2024/01/27 09:06:24;;;;;;;48.13;43.60;;;;;;;5.72;100.00;103049.38;4933827;29;21212;-44
2024/01/27 09:08:56;;;;;;;53.23;44.10;;;;;;;5.83;100.00;103052.09;4933181;28;20457;-44
2024/01/27 09:11:26;;;;;;;49.27;44.37;;;;;;;5.99;100.00;103057.19;4933802;29;20440;-41
2024/01/27 09:13:54;;;;;;;50.37;45.90;;;;;;;6.13;100.00;103064.97;4933210;29;20475;-42
2024/01/27 09:16:23;;;;;;;53.70;48.50;;;;;;;6.17;100.00;103047.91;4933569;29;21034;-42
2024/01/27 09:18:52;;;;;;;50.40;45.10;;;;;;;6.30;100.00;103046.03;4932943;28;20884;-43
2024/01/27 09:21:27;;;;;;;54.03;48.17;;;;;;;6.37;100.00;103049.09;4933505;29;20468;-44
2024/01/27 09:23:56;;;;;;;51.63;46.83;;;;;;;6.41;100.00;103046.09;4933268;29;20531;-41
2024/01/27 09:26:24;;;;;;;51.63;47.30;;;;;;;6.47;100.00;103048.31;4933640;29;20956;-41
2024/01/27 09:28:54;;;;;;;56.03;49.83;;;;;;;6.38;100.00;103048.13;4932007;28;20936;-41
2024/01/27 09:31:23;;;;;;;54.67;50.40;;;;;;;6.41;100.00;103050.56;4926718;29;20530;-44
2024/01/27 09:33:52;;;;;;;53.97;49.43;;;;;;;6.50;100.00;103049.88;4932820;29;20473;-44
2024/01/27 09:36:22;;;;;;;52.70;47.93;;;;;;;6.57;100.00;103046.63;4930245;29;20477;-41
2024/01/27 09:38:50;;;;;;;55.53;49.83;;;;;;;6.61;100.00;103041.97;4935334;28;20440;-41
2024/01/27 09:41:18;;;;;;;55.97;50.57;;;;;;;6.65;100.00;103046.94;4934430;29;20451;-42
2024/01/27 09:43:48;;;;;;;57.40;50.80;;;;;;;6.70;100.00;103049.22;4930382;29;20551;-41
2024/01/27 09:46:18;;;;;;;57.43;52.60;;;;;;;6.80;100.00;103060.84;4934001;29;20444;-45
2024/01/27 09:48:46;;;;;;;54.80;50.10;;;;;;;6.98;100.00;103062.09;4934582;28;20529;-42
2024/01/27 09:51:14;;;;;;;57.37;51.67;;;;;;;7.07;100.00;103065.84;4934771;29;20444;-45
2024/01/27 09:53:43;;;;;;;53.80;48.47;;;;;;;7.15;100.00;103064.31;4936465;29;20519;-42
2024/01/27 09:56:17;;;;;;;56.70;51.80;;;;;;;7.23;100.00;103055.72;4935051;29;20484;-44
2024/01/27 09:58:46;;;;;;;57.67;52.63;;;;;;;7.24;100.00;103052.97;4934350;28;20445;-43
2024/01/27 10:01:17;;;;;;;61.67;56.33;;;;;;;7.24;100.00;103050.31;4934746;29;20984;-42
2024/01/27 10:03:44;;;;;;;60.20;54.30;;;;;;;7.35;100.00;103048.66;4932893;29;20445;-43
2024/01/27 10:06:12;;;;;;;57.03;52.13;;;;;;;7.46;100.00;103051.31;4934568;29;20460;-42
2024/01/27 10:08:41;;;;;;;56.67;51.33;;;;;;;7.45;100.00;103050.47;4934666;28;20451;-43
2024/01/27 10:11:11;;;;;;;57.93;52.33;;;;;;;7.55;100.00;103050.59;4928295;29;20508;-42
2024/01/27 10:13:39;;;;;;;62.23;56.03;;;;;;;7.56;100.00;103062.88;4935951;29;20444;-45
2024/01/27 10:16:08;;;;;;;60.23;55.00;;;;;;;7.65;100.00;103059.50;4935184;29;20520;-42
2024/01/27 10:18:36;;;;;;;63.50;57.07;;;;;;;7.67;100.00;103061.09;4934940;28;20513;-43
2024/01/27 10:21:13;;;;;;;58.90;54.23;;;;;;;7.70;100.00;103071.47;4934074;29;20445;-42
2024/01/27 10:23:41;;;;;;;63.10;57.17;;;;;;;7.74;100.00;103054.31;4934342;29;20441;-43
2024/01/27 10:26:11;;;;;;;61.70;56.77;;;;;;;7.78;100.00;103054.91;4934845;29;20484;-42
2024/01/27 10:28:39;;;;;;;64.43;58.07;;;;;;;7.86;100.00;103060.44;4933793;28;20445;-42
2024/01/27 10:31:10;;;;;;;62.20;56.90;;;;;;;7.90;100.00;103055.75;4937873;29;20440;-45
2024/01/27 10:33:38;;;;;;;60.77;55.90;;;;;;;7.97;100.00;103057.81;4929014;29;20505;-43
2024/01/27 10:36:07;;;;;;;60.50;55.30;;;;;;;8.10;100.00;103054.97;4931680;29;20490;-45
2024/01/27 10:38:35;;;;;;;59.07;54.03;;;;;;;8.13;100.00;103050.25;4930325;28;21357;-46
2024/01/27 10:41:08;;;;;;;59.23;53.70;;;;;;;8.16;100.00;103054.47;4931830;29;20468;-42
2024/01/27 10:43:39;;;;;;;61.90;56.40;;;;;;;8.12;100.00;103059.19;4931409;29;20445;-45
2024/01/27 10:46:07;;;;;;;55.57;50.40;;;;;;;8.15;100.00;103061.59;4924198;29;20457;-45
2024/01/27 10:48:36;;;;;;;56.43;50.73;;;;;;;8.26;100.00;103058.09;4931367;28;20492;-43
2024/01/27 10:51:09;;;;;;;57.03;51.47;;;;;;;8.27;100.00;103060.63;4931141;29;20955;-44
2024/01/27 10:53:39;;;;;;;54.17;49.13;;;;;;;8.31;100.00;103062.09;4931138;29;20860;-45
2024/01/27 10:56:09;;;;;;;53.70;48.33;;;;;;;8.34;100.00;103061.84;4930232;29;20491;-42
2024/01/27 10:58:41;;;;;;;53.70;48.83;;;;;;;8.53;100.00;103063.84;4931164;28;20560;-45
2024/01/27 11:01:11;;;;;;;52.80;47.73;;;;;;;8.54;100.00;103052.19;4930929;29;20445;-44
2024/01/27 11:03:40;;;;;;;52.43;47.00;;;;;;;8.56;100.00;103068.91;4931256;29;20441;-42
2024/01/27 11:06:08;;;;;;;51.87;46.57;;;;;;;8.53;100.00;103071.81;4931448;29;20471;-42
2024/01/27 11:08:38;;;;;;;53.43;48.20;;;;;;;8.60;100.00;103072.16;4930254;28;21003;-45
2024/01/27 11:11:11;;;;;;;49.77;45.13;;;;;;;8.62;100.00;103081.69;4930752;29;20467;-45
2024/01/27 11:13:40;;;;;;;47.67;43.17;;;;;;;8.64;100.00;103076.22;4930484;29;20816;-43